Stunt Ranch Reserve, Santa Monica Mtns, California Weather observations

Data are for 10 minute period ending at time listed.
 Day   Time   Solar   Ave.   Ave.  Ave.  Vector  Max.   Baro.   Total    
  of    of     Rad.   Air    Rel.  Wind   Wind   Wind  Press.  Precip.   
Year   Day            Temp.  Hum.  Speed  Dir.   Gust                    
2017   (PST)  Kw/m2    F      %     mph   deg.    mph    mb.     in.     
-------------------------------------------------------------------------
 146    0:00   0.00   53.8    88    1.4   279     5.0   966.8    0.00 
 146    0:10   0.00   53.7    89    2.2   270     4.2   966.8    0.00 
 146    0:20   0.00   53.5    91    1.2   273     2.7   966.8    0.00 
 146    0:30   0.00   53.5    91    0.8   271     2.3   966.8    0.00 
 146    0:40   0.00   53.3    91    1.4   268     2.4   966.8    0.00 
 146    0:50   0.00   53.5    91    0.4   310     2.0   966.8    0.00 
 146    1:00   0.00   53.4    92    0.7   304     2.0   966.8    0.00 
 146    1:10   0.00   53.3    92    1.4   293     2.8   967.2    0.00 
 146    1:20   0.00   53.2    92    1.1    28     2.0   967.2    0.00 
 146    1:30   0.00   53.0    91    2.6   145     7.5   966.8    0.00 
 146    1:40   0.00   53.3    86    1.5   239     4.4   966.8    0.00 
 146    1:50   0.00   53.6    89    2.7   272     4.7   966.8    0.00 
 146    2:00   0.00   53.6    90    1.6   285     3.8   966.8    0.00 
 146    2:10   0.00   53.6    91    0.2   196     1.2   966.8    0.00 
 146    2:20   0.00   53.5    91    0.6   288     1.6   966.8    0.00 
 146    2:30   0.00   53.5    91    1.4   242     2.3   966.8    0.00 
 146    2:40   0.00   53.5    91    0.3   294     1.1   966.8    0.00 
 146    2:50   0.00   53.5    91    0.4   116     1.3   966.8    0.00 
 146    3:00   0.00   53.5    91    1.8   243     2.7   966.8    0.00 
 146    3:10   0.00   53.5    91    0.6   227     1.6   967.2    0.00 
 146    3:20   0.00   53.6    91    0.5    10     1.5   967.2    0.00 
 146    3:30   0.00   53.7    91    0.0     0     0.0   967.2    0.00 
 146    3:40   0.00   53.6    91    0.4   191     1.5   967.2    0.00 
 146    3:50   0.00   53.6    91    0.7   275     2.4   967.2    0.00 
 146    4:00   0.00   53.7    91    1.1   278     3.1   967.2    0.00 
 146    4:10   0.00   53.7    92    0.8   270     2.4   967.2    0.00 
 146    4:20   0.00   53.7    92    0.4   289     2.0   967.2    0.00 
 146    4:30   0.00   53.6    92    0.7   272     2.6   967.2    0.00 
 146    4:40   0.00   53.5    93    0.2   359     0.9   967.2    0.00 
 146    4:50   0.00   53.3    93    0.0     0     0.0   967.5    0.00 
 146    5:00   0.00   53.3    93    0.0   209     0.4   967.5    0.00 
 146    5:10   0.01   53.3    92    0.3   148     0.9   967.5    0.00 
 146    5:20   0.01   53.5    92    0.4   118     1.2   967.5    0.00 
 146    5:30   0.02   53.6    92    0.0    92     0.7   967.8    0.00 
 146    5:40   0.03   53.7    91    0.2   110     0.9   967.8    0.00 
 146    5:50   0.04   53.9    90    0.0   113     0.6   967.8    0.00 
 146    6:00   0.04   54.2    88    0.3   270     1.2   967.8    0.00 
 146    6:10   0.05   54.8    87    0.7   290     1.8   967.8    0.00 
 146    6:20   0.05   55.1    85    0.4   294     1.9   968.2    0.00 
 146    6:30   0.07   55.5    84    0.6   298     2.1   968.2    0.00 
 146    6:40   0.07   55.7    82    0.4   284     2.0   968.2    0.00 
 146    6:50   0.09   55.9    82    1.3   322     2.9   968.2    0.00 
 146    7:00   0.09   56.4    81    0.6   283     2.9   968.2    0.00 
 146    7:10   0.11   56.8    80    1.9   284     3.9   968.5    0.00 
 146    7:20   0.13   57.5    80    3.0   283     5.5   968.5    0.00 
 146    7:30   0.14   57.8    77    2.5   278     5.0   968.5    0.00 
 146    7:40   0.15   58.1    75    1.8   336     4.4   968.5    0.00 
 146    7:50   0.15   58.4    74    1.1   309     3.4   968.8    0.00 
 146    8:00   0.16   58.5    70    2.3   180     5.6   968.8    0.00 
 146    8:10   0.16   58.7    67    3.7   168     8.1   968.8    0.00 
 146    8:20   0.19   58.7    67    4.4   161     9.4   969.2    0.00 
 146    8:30   0.24   58.5    66    5.8   163    10.6   969.2    0.00 
 146    8:40   0.28   59.3    66    4.8   166     9.6   969.2    0.00 
 146    8:50   0.30   60.2    64    3.2   164     8.8   969.2    0.00 
 146    9:00   0.31   60.3    63    5.0   173     9.3   969.2    0.00 
 146    9:10   0.31   60.4    62    3.8   178    11.9   969.2    0.00 
 146    9:20   0.33   60.5    63    6.2   165    12.1   969.2    0.00 
 146    9:30   0.32   60.5    62    4.4   216    10.3   969.2    0.00 
 146    9:40   0.34   61.1    62    3.6   217     9.1   969.2    0.00 
 146    9:50   0.36   61.3    62    4.4   192     9.6   969.2    0.00 
 146   10:00   0.43   62.0    60    4.7   185     9.4   969.2    0.00 
 146   10:10   0.50   62.5    60    4.9   189    10.2   969.2    0.00 
 146   10:20   0.59   63.4    57    4.7   144     9.4   969.2    0.00 
 146   10:30   0.63   65.1    54    5.0   164    12.8   969.2    0.00 
 146   10:40   0.73   66.0    52    6.1   164    12.6   969.2    0.00 
 146   10:50   0.72   65.7    52    6.1   165    13.4   969.2    0.00 
 146   11:00   0.70   66.0    52    6.5   174    12.6   969.2    0.00 
 146   11:10   0.87   65.9    51    5.9   161    11.4   969.2    0.00 
 146   11:20   0.82   65.4    50    6.2   148    12.6   969.2    0.00 
 146   11:30   0.84   67.7    48    4.0   183     9.3   968.8    0.00 
 146   11:40   0.52   66.4    50    3.8   118     8.8   968.8    0.00 
 146   11:50   0.56   65.6    50    3.7    83     9.3   968.8    0.00 
 146   12:00   0.48   65.4    50    3.2   135    10.9   969.2    0.00 
 146   12:10   0.58   65.0    52    5.9   149    11.8   969.2    0.00 
 146   12:20   0.52   66.3    50    4.7   175    11.5   969.2    0.00 
 146   12:30   0.81   67.8    48    2.7   161     7.7   969.2    0.00 
 146   12:40   0.60   67.9    48    3.5   151     8.7   968.8    0.00 
 146   12:50   0.47   66.2    51    3.9   165     8.9   968.8    0.00 
 146   13:00   0.46   65.2    53    5.6   209    14.1   969.2    0.00 
 146   13:10   0.49   65.4    53    5.6   211    11.8   969.2    0.00 
 146   13:20   0.55   66.1    54    4.1   194    11.3   969.2    0.00 
 146   13:30   0.61   66.1    55    5.1   221    14.8   968.8    0.00 
 146   13:40   0.61   65.9    56    4.5   186    11.6   968.8    0.00 
 146   13:50   0.55   66.7    53    5.1   162    11.6   968.8    0.00 
 146   14:00   0.44   65.5    55    3.6   186    11.4   968.8    0.00 
 146   14:10   0.46   65.9    55    3.2   196    10.5   968.8    0.00 
 146   14:20   0.50   66.6    55    3.3   231    10.4   968.8    0.00 
 146   14:30   0.43   67.0    53    3.3   278     8.3   968.5    0.00 
 146   14:40   0.38   67.2    52    4.6   256    14.2   968.5    0.00 
 146   14:50   0.73   67.9    50    1.6   267     4.8   968.5    0.00 
 146   15:00   0.75   69.0    48    3.7   212     9.9   968.5    0.00 
 146   15:10   0.73   69.0    48    2.0    65     7.2   968.5    0.00 
 146   15:20   0.73   68.6    48    2.0   190     5.8   968.2    0.00 
 146   15:30   0.65   67.7    50    3.2   137    11.8   968.2    0.00 
 146   15:40   0.57   67.1    52    2.9   233     7.9   968.2    0.00 
 146   15:50   0.53   67.5    51    1.5   133     5.3   968.2    0.00 
 146   16:00   0.50   68.7    50    1.7    43     6.6   968.2    0.00 
 146   16:10   0.47   69.0    49    1.1   359     5.0   968.2    0.00 
 146   16:20   0.44   69.8    47    1.2    49     5.5   968.2    0.00 
 146   16:30   0.41   68.8    48    2.5   229     9.4   968.2    0.00 
 146   16:40   0.37   66.9    49    2.1   243     6.4   968.2    0.00 
 146   16:50   0.35   67.5    49    2.0   225     6.5   968.2    0.00 
 146   17:00   0.26   66.3    50    2.9   224     8.6   968.2    0.00 
 146   17:10   0.28   65.0    51    4.7   213     9.7   968.2    0.00 
 146   17:20   0.24   64.7    52    3.6   263     7.5   968.2    0.00 
 146   17:30   0.19   64.6    52    1.4   277     5.3   968.5    0.00 
 146   17:40   0.14   63.6    53    2.5   219     5.8   968.5    0.00 
 146   17:50   0.10   62.8    55    1.4   242     6.9   968.8    0.00 
 146   18:00   0.05   62.0    56    1.5   290     5.5   968.8    0.00 
 146   18:10   0.04   61.6    56    2.3   305     6.1   968.8    0.00 
 146   18:20   0.06   61.7    56    2.6   311     5.9   968.8    0.00 
 146   18:30   0.04   61.5    56    2.0   286     6.9   968.8    0.00 
 146   18:40   0.02   60.5    58    2.2   286     8.3   969.2    0.00 
 146   18:50   0.01   59.7    59    2.9   282     7.4   969.2    0.00 
 146   19:00   0.01   58.7    61    0.5   336     3.6   969.2    0.00 
 146   19:10   0.00   57.7    64    0.4   300     3.2   969.2    0.00 
 146   19:20   0.00   56.6    68    1.4   282     4.5   969.2    0.00 
 146   19:30   0.00   56.2    70    2.0   250     4.0   969.5    0.00 
 146   19:40   0.00   56.1    70    1.9   244     3.9   969.5    0.00 
 146   19:50   0.00   55.8    71    1.8   223     3.4   969.5    0.00 
 146   20:00   0.00   55.2    72    2.7   218     4.0   969.5    0.00 
 146   20:10   0.00   54.7    73    1.7   240     2.9   969.5    0.00 
 146   20:20   0.00   54.6    74    1.1   226     2.4   969.5    0.00 
 146   20:30   0.00   54.2    75    1.5   209     2.8   969.9    0.00 
 146   20:40   0.00   53.9    76    2.0   228     2.7   969.9    0.00 
 146   20:50   0.00   53.7    77    2.1   218     3.0   969.9    0.00 
 146   21:00   0.00   53.5    77    0.6   255     1.8   969.9    0.00 
 146   21:10   0.00   53.3    78    0.9   242     1.6   969.9    0.00 
 146   21:20   0.00   53.2    79    2.1   211     3.8   970.2    0.00 
 146   21:30   0.00   52.8    79    2.3   204     4.1   970.2    0.00 
 146   21:40   0.00   53.1    79    1.3   223     2.6   970.2    0.00 
 146   21:50   0.00   53.3    79    1.2   245     2.0   970.2    0.00 
 146   22:00   0.00   53.3    79    1.3   249     2.2   970.2    0.00 
 146   22:10   0.00   52.9    79    0.4   231     0.9   970.2    0.00 
 146   22:20   0.00   52.4    80    0.4   183     1.3   970.2    0.00 
 146   22:30   0.00   52.1    81    0.1   240     0.9   970.2    0.00 
 146   22:40   0.00   52.0    82    1.0   232     1.5   970.2    0.00 
 146   22:50   0.00   51.6    82    0.3   264     1.0   970.2    0.00 
 146   23:00   0.00   51.4    83    0.7   218     1.8   970.2    0.00 

Return to Stunt Ranch Reserve graphs page.


Western Regional Climate Center,wrcc@dri.edu